Terminal Aerodrome Forecast
Issued by NWS

Home | Current Version | Previous Version | Text Only | Print | Product List | Glossary Off
Versions: 1 2 3 4 5 6 7 8 9 10 11 12 13 14 15 16 17 18 19 20 21 22 23 24 25 26

000
FTUS43 KLOT 162103 AAA
TAFORD
TAF AMD
KORD 162103Z 1621/1724 20011G18KT P6SM SCT060 SCT250
     FM170100 16008KT P6SM FEW050 SCT250
     FM170800 19008KT P6SM BKN040
     FM171400 25009KT P6SM BKN040 BKN120 PROB30 1714/1717 -SHRA
     FM171700 23008KT P6SM SCT050 BKN120 PROB30 1717/1720 5SM -SHRA
     FM172000 34009KT P6SM SCT020 BKN035=

USA.gov is the U.S. government's official web portal to all federal, state and local government web resources and services.